Cfl Performer — PHLY — position and weather

sailwx.info

Track history (hours):
 
Tides and Currents Weather Stations Pressure Air Temp Water Temp Dewpoint Dewpoint Depression Visibility Wind Speed Wind Dir Waves Ship Positions

Cfl Performer

Last reported at 2017-May-25 22:54 UTC. Time now 2017-May-26 18:53 UTC.
Position N 37°49' E 024°24'.

Length 117 m; draft 3.4 m.

Type: Cargo ship. MMSI: 244989000.

Date/timePositionNaut miles runAvg speedWind from/ knotsBaromVisibWave heightAir tempDewpointWater temp
2017-May-25 22:54N 37°49' E 024°24'610.4
2017-May-25 22:19N 37°44' E 024°20'1111.2
2017-May-25 21:22N 37°36' E 024°10'710.9
2017-May-25 20:44N 37°34' E 024°02'311.5
2017-May-25 20:30N 37°34' E 023°59'611.4
2017-May-25 20:00N 37°35' E 023°52'611.3
2017-May-25 19:30N 37°37' E 023°45'510.7
2017-May-25 19:00N 37°41' E 023°41'611.2
2017-May-25 18:31N 37°46' E 023°38'5 9.9
2017-May-25 18:00N 37°50' E 023°34'510.7
2017-May-25 17:30N 37°51' E 023°27'611.2
2017-May-25 17:01N 37°52' E 023°20'611.0
2017-May-25 16:30N 37°53' E 023°13'611.2
2017-May-25 16:00N 37°54' E 023°06'16 6.8
2017-May-25 13:42N 38°05' E 022°53'211.3
2017-May-25 13:30N 38°07' E 022°55'327 7.5
2017-May-23 18:07N 37°51' E 016°01'210.8
2017-May-23 17:54N 37°51' E 015°58'410.8
2017-May-23 17:30N 37°51' E 015°53'510.6
2017-May-23 17:00N 37°50' E 015°46'510.0
2017-May-23 16:30N 37°51' E 015°40'5 9.9
2017-May-23 16:00N 37°55' E 015°36'5 9.3
2017-May-23 15:30N 37°59' E 015°33'611.0
2017-May-23 15:00N 38°04' E 015°34'510.8
2017-May-23 14:30N 38°10' E 015°35'8 7.9
2017-May-23 13:30N 38°16' E 015°40'5 9.6
2017-May-23 13:00N 38°19' E 015°35'510.5
2017-May-23 12:30N 38°23' E 015°30'510.9
2017-May-23 12:00N 38°25' E 015°24'510.4
2017-May-23 11:30N 38°28' E 015°18'510.3
2017-May-23 11:00N 38°31' E 015°13'510.3
2017-May-23 10:30N 38°34' E 015°07'510.2
2017-May-23 10:00N 38°36' E 015°02'510.3
2017-May-23 09:29N 38°39' E 014°56'610.1
2017-May-23 08:55N 38°42' E 014°50'510.2
2017-May-23 08:26N 38°45' E 014°44'4810.3
2017-May-23 03:46N 39°11' E 013°53'410.5
2017-May-23 03:25N 39°13' E 013°49'410.5
2017-May-23 03:00N 39°15' E 013°44'5110.3
2017-May-22 22:00N 39°43' E 012°48'1210.2
2017-May-22 20:48N 39°49' E 012°34'410.2
2017-May-22 20:26N 39°51' E 012°30'510.2
2017-May-22 19:59N 39°54' E 012°25'710.2
2017-May-22 19:19N 39°58' E 012°17'310.2
2017-May-22 19:00N 39°59' E 012°14'510.2
2017-May-22 18:29N 40°02' E 012°08'510.1
2017-May-22 18:00N 40°05' E 012°03'510.2
2017-May-22 17:30N 40°08' E 011°57'510.1
2017-May-22 17:00N 40°10' E 011°52'8 9.8
2017-May-22 16:10N 40°15' E 011°43'2 9.6
2017-May-22 16:00N 40°16' E 011°41'6 9.7
2017-May-22 15:26N 40°18' E 011°35'6 9.7
2017-May-22 14:47N 40°22' E 011°28'8 9.6
2017-May-22 13:58N 40°26' E 011°19'5 9.8
2017-May-22 13:30N 40°28' E 011°14'5 9.9
2017-May-22 12:57N 40°31' E 011°08'5 9.9
2017-May-22 12:29N 40°34' E 011°03'610.0
2017-May-22 11:56N 40°37' E 010°57'610.3
2017-May-22 11:23N 40°40' E 010°51'510.3
2017-May-22 10:57N 40°42' E 010°45'410.3
2017-May-22 10:30N 40°45' E 010°40'610.3
2017-May-22 09:56N 40°48' E 010°34'610.2
2017-May-22 09:22N 40°51' E 010°28'410.2
2017-May-22 08:59N 40°53' E 010°23'510.2
2017-May-22 08:30N 40°56' E 010°18'510.6
2017-May-22 08:00N 40°59' E 010°12'510.6
2017-May-22 07:30N 41°01' E 010°06'710.8
2017-May-22 06:52N 41°05' E 009°58'410.8
2017-May-22 06:27N 41°08' E 009°53'510.8
2017-May-22 05:59N 41°10' E 009°47'510.6
2017-May-22 05:29N 41°13' E 009°41'710.7
2017-May-22 04:50N 41°17' E 009°34'411.0
2017-May-22 04:27N 41°19' E 009°29'510.6
2017-May-22 03:59N 41°22' E 009°24'510.6
2017-May-22 03:30N 41°19' E 009°18'5 9.9
2017-May-22 02:58N 41°17' E 009°12'510.2
2017-May-22 02:28N 41°18' E 009°05'510.3
2017-May-22 02:00N 41°20' E 008°59'510.4
2017-May-22 01:30N 41°22' E 008°53'510.3
2017-May-22 01:00N 41°26' E 008°48'610.3
2017-May-22 00:26N 41°29' E 008°41'510.3
2017-May-21 23:59N 41°31' E 008°36'510.2
2017-May-21 23:29N 41°34' E 008°30'610.2
2017-May-21 22:52N 41°37' E 008°23'410.2
2017-May-21 22:30N 41°39' E 008°19'510.1
2017-May-21 21:59N 41°42' E 008°13'510.0
2017-May-21 21:28N 41°45' E 008°07'5 9.9
2017-May-21 21:00N 41°47' E 008°02'510.0
2017-May-21 20:30N 41°50' E 007°56'5 9.9
2017-May-21 19:58N 41°53' E 007°50'510.2
2017-May-21 19:30N 41°55' E 007°45'510.2
2017-May-21 18:59N 41°58' E 007°39'510.2
2017-May-21 18:30N 42°01' E 007°33'510.3
2017-May-21 17:59N 42°03' E 007°27'510.0
2017-May-21 17:29N 42°06' E 007°21'510.0
2017-May-21 17:00N 42°09' E 007°16'510.2
2017-May-21 16:30N 42°11' E 007°10'610.3
2017-May-21 15:58N 42°14' E 007°04'510.4
2017-May-21 15:30N 42°17' E 006°58'510.4
2017-May-21 14:59N 42°20' E 006°52'510.3
2017-May-21 14:29N 42°23' E 006°46'1110.3
2017-May-21 13:27N 42°28' E 006°34'510.2
2017-May-21 13:00N 42°31' E 006°29'46 9.9
2017-May-21 08:19N 42°56' E 005°36'3 9.8
2017-May-21 08:00N 42°57' E 005°32'5 9.9
2017-May-21 07:30N 42°60' E 005°26'710.1
2017-May-21 06:49N 43°04' E 005°18'410.2
2017-May-21 06:27N 43°05' E 005°14'5 9.9
2017-May-21 05:58N 43°09' E 005°10'610.3
2017-May-21 05:26N 43°14' E 005°05'410.4
2017-May-21 05:00N 43°17' E 005°02'510.7
2017-May-21 04:30N 43°22' E 004°58'5 9.4
2017-May-21 04:00N 43°25' E 004°53'1 1.9
2017-May-21 03:29N 43°26' E 004°54'0 0.0
2017-May-21 02:59N 43°26' E 004°54'0 0.0
2017-May-21 02:26N 43°26' E 004°54'0 0.0
2017-May-21 01:53N 43°26' E 004°54'0 0.0
2017-May-21 01:26N 43°26' E 004°54'0 0.0
2017-May-21 00:53N 43°26' E 004°54'0 0.0
2017-May-21 00:29N 43°26' E 004°54'0 0.0
2017-May-20 23:59N 43°26' E 004°54'0 0.0
2017-May-20 23:29N 43°26' E 004°54'0 0.0
2017-May-20 22:59N 43°26' E 004°54'0 0.0
2017-May-20 22:29N 43°26' E 004°54'0 0.0
2017-May-20 21:59N 43°26' E 004°54'0 0.0
2017-May-20 21:20N 43°26' E 004°54'0 0.0
2017-May-20 20:38N 43°26' E 004°54'0 0.0
2017-May-20 20:29N 43°26' E 004°54'0 0.0
2017-May-20 19:59N 43°26' E 004°54'0 0.0
2017-May-20 19:29N 43°26' E 004°54'0 0.0
2017-May-20 18:56N 43°26' E 004°54'0 0.0
2017-May-20 18:29N 43°26' E 004°54'0 0.0
2017-May-20 17:59N 43°26' E 004°54'0 0.0
2017-May-20 17:29N 43°26' E 004°54'0 0.0
2017-May-20 16:56N 43°26' E 004°54'0 0.0
2017-May-20 16:26N 43°26' E 004°54'0 0.0
2017-May-20 15:59N 43°26' E 004°54'0 0.0
2017-May-20 15:29N 43°26' E 004°54'0 0.0
2017-May-20 14:53N 43°26' E 004°54'0 0.0
2017-May-20 14:29N 43°26' E 004°54'0 0.1
2017-May-20 13:26N 43°26' E 004°53'0 0.0
2017-May-20 12:23N 43°26' E 004°53'0 0.0
2017-May-20 11:59N 43°26' E 004°53'0 0.0
2017-May-20 11:26N 43°26' E 004°53'0 0.0
2017-May-20 10:38N 43°26' E 004°53'0 0.0
2017-May-20 10:29N 43°26' E 004°53'0 0.0
2017-May-20 09:50N 43°26' E 004°53'0 0.0
2017-May-20 09:29N 43°26' E 004°53'0 0.0
2017-May-20 08:53N 43°26' E 004°53'0 0.0
2017-May-20 08:26N 43°26' E 004°53'0 0.0
2017-May-20 06:56N 43°26' E 004°53'0 0.0
2017-May-20 06:20N 43°26' E 004°53'0 0.0
2017-May-20 05:08N 43°26' E 004°53'0 0.0
2017-May-20 04:56N 43°26' E 004°53'0 0.0
2017-May-20 04:23N 43°26' E 004°53'0 0.0
2017-May-20 03:59N 43°26' E 004°53'0 0.0
2017-May-20 03:20N 43°26' E 004°53'0 0.0
2017-May-20 02:32N 43°26' E 004°53'0 0.0
2017-May-20 02:23N 43°26' E 004°53'0 0.0
2017-May-20 01:59N 43°26' E 004°53'0 0.0
2017-May-20 01:29N 43°26' E 004°53'0 0.0
2017-May-20 00:59N 43°26' E 004°53'0 0.0
2017-May-20 00:14N 43°26' E 004°53'0 0.0
2017-May-19 23:56N 43°26' E 004°53'0 0.0
2017-May-19 23:26N 43°26' E 004°53'0 0.0
2017-May-19 22:59N 43°26' E 004°53'0 0.0
2017-May-19 22:29N 43°26' E 004°53'0 0.0
2017-May-19 21:59N 43°26' E 004°53'0 0.0
2017-May-19 21:26N 43°26' E 004°53'0 0.0
2017-May-19 20:59N 43°26' E 004°53'0 0.0
2017-May-19 20:20N 43°26' E 004°53'0 0.0
2017-May-19 19:47N 43°26' E 004°53'0 0.0
2017-May-19 19:20N 43°26' E 004°53'0 0.0
2017-May-19 18:50N 43°26' E 004°53'0 0.0
2017-May-19 18:26N 43°26' E 004°53'0 0.0
2017-May-19 17:56N 43°26' E 004°53'0 0.0
2017-May-19 17:29N 43°26' E 004°53'0 0.0
2017-May-19 16:59N 43°26' E 004°53'0 0.1
2017-May-19 16:29N 43°26' E 004°53'0 0.0
2017-May-19 15:59N 43°26' E 004°53'0 0.0
2017-May-19 15:26N 43°26' E 004°53'0 0.0
2017-May-19 14:47N 43°26' E 004°53'0 0.0
2017-May-19 13:56N 43°26' E 004°53'0 0.0
2017-May-19 13:26N 43°26' E 004°53'0 0.0
2017-May-19 12:17N 43°26' E 004°53'0 0.0
2017-May-19 11:56N 43°26' E 004°53'0 0.0
2017-May-19 10:32N 43°26' E 004°53'0 0.0
2017-May-19 10:23N 43°26' E 004°53'0 0.0
2017-May-19 09:44N 43°26' E 004°53'0 0.0
2017-May-19 09:29N 43°26' E 004°53'0 0.0
2017-May-19 08:59N 43°26' E 004°53'0 0.0
2017-May-19 08:29N 43°26' E 004°53'0 0.0
2017-May-19 07:50N 43°26' E 004°53'0 0.0
2017-May-19 07:20N 43°26' E 004°53'0 0.0
2017-May-19 06:56N 43°26' E 004°53'0 0.0
2017-May-19 06:29N 43°26' E 004°53'0 0.0
2017-May-19 05:38N 43°26' E 004°53'0 0.0
2017-May-19 05:26N 43°26' E 004°53'0 0.0
2017-May-19 04:56N 43°26' E 004°53'0 0.0
2017-May-19 04:20N 43°26' E 004°53'0 0.0
2017-May-19 03:47N 43°26' E 004°53'0 0.0
2017-May-19 03:26N 43°26' E 004°53'0 0.0
2017-May-19 02:56N 43°26' E 004°53'0 0.0
2017-May-19 02:20N 43°26' E 004°53'0 0.0
2017-May-19 01:56N 43°26' E 004°53'0 0.0
2017-May-19 01:20N 43°26' E 004°53'0 0.0
2017-May-19 00:56N 43°26' E 004°53'0 0.0
2017-May-19 00:29N 43°26' E 004°53'0 0.0
2017-May-18 23:59N 43°26' E 004°53'0 0.0
2017-May-18 23:29N 43°26' E 004°53'0 0.0
2017-May-18 22:50N 43°26' E 004°53'0 0.0
2017-May-18 22:26N 43°26' E 004°53'0 0.0
2017-May-18 21:50N 43°26' E 004°53'0 0.0
2017-May-18 21:26N 43°26' E 004°53'0 0.0
2017-May-18 20:56N 43°26' E 004°53'0 0.0
2017-May-18 20:29N 43°26' E 004°53'0 0.0
2017-May-18 19:50N 43°26' E 004°53'0 0.0
2017-May-18 19:23N 43°26' E 004°53'0 0.7
2017-May-18 18:56N 43°25' E 004°53'1 3.3
2017-May-18 18:28N 43°24' E 004°54'2 4.0
2017-May-18 17:58N 43°24' E 004°56'0 0.1
2017-May-18 17:25N 43°24' E 004°56'0 0.0
2017-May-18 16:49N 43°24' E 004°56'0 0.1
2017-May-18 16:28N 43°24' E 004°56'0 0.0
2017-May-18 15:58N 43°24' E 004°56'0 0.0
2017-May-18 15:28N 43°24' E 004°56'0 0.0
2017-May-18 14:58N 43°24' E 004°56'0 0.0
2017-May-18 14:28N 43°24' E 004°56'0 0.0
2017-May-18 13:28N 43°24' E 004°56'0 0.0
2017-May-18 12:58N 43°24' E 004°56'0 0.0
2017-May-18 12:28N 43°24' E 004°56'0 0.0
2017-May-18 11:58N 43°24' E 004°56'0 0.0
2017-May-18 11:28N 43°24' E 004°56'0 0.0
2017-May-18 10:58N 43°24' E 004°57'0 0.0
2017-May-18 10:28N 43°24' E 004°57'0 0.1
2017-May-18 09:58N 43°24' E 004°57'0 0.0
2017-May-18 09:28N 43°24' E 004°57'0 0.0
2017-May-18 08:58N 43°24' E 004°57'0 0.0
2017-May-18 08:28N 43°24' E 004°57'0 0.0
2017-May-18 07:58N 43°24' E 004°57'0 0.1
2017-May-18 07:28N 43°24' E 004°56'0 0.1
2017-May-18 06:58N 43°24' E 004°56'0 0.1
2017-May-18 06:28N 43°24' E 004°56'0 0.0
2017-May-18 05:58N 43°24' E 004°56'0 0.0
2017-May-18 05:28N 43°24' E 004°56'0 0.0
2017-May-18 04:58N 43°24' E 004°56'0 0.0
2017-May-18 04:28N 43°24' E 004°56'0 0.0
2017-May-18 03:55N 43°24' E 004°56'0 0.1
2017-May-18 03:28N 43°24' E 004°57'0 0.1
2017-May-18 02:58N 43°24' E 004°57'0 0.0
2017-May-18 02:28N 43°24' E 004°57'0 0.0
2017-May-18 01:58N 43°24' E 004°57'0 0.0
2017-May-18 01:28N 43°24' E 004°57'0 0.0
2017-May-18 00:58N 43°24' E 004°57'0 0.0
2017-May-18 00:28N 43°24' E 004°57'0 0.1
2017-May-17 23:58N 43°24' E 004°57'0 0.1
2017-May-17 23:28N 43°24' E 004°56'0 0.0
2017-May-17 22:58N 43°24' E 004°56'0 0.0
2017-May-17 22:28N 43°24' E 004°56'0 0.0
2017-May-17 21:58N 43°24' E 004°56'0 0.0
2017-May-17 21:28N 43°24' E 004°56'0 0.0
2017-May-17 20:58N 43°24' E 004°56'0 0.0
2017-May-17 20:28N 43°24' E 004°56'0 0.0
2017-May-17 19:58N 43°24' E 004°56'0 0.0
2017-May-17 19:28N 43°24' E 004°56'0 0.0
2017-May-17 18:58N 43°24' E 004°56'0 0.0
2017-May-17 18:25N 43°24' E 004°56'0 0.0
2017-May-17 17:58N 43°24' E 004°56'0 0.1
2017-May-17 17:28N 43°24' E 004°56'0 0.0
2017-May-17 16:43N 43°24' E 004°56'0 0.0
2017-May-17 16:25N 43°24' E 004°56'0 0.1
2017-May-17 15:58N 43°24' E 004°56'0 0.1
2017-May-17 15:28N 43°24' E 004°57'0 0.0
2017-May-17 14:58N 43°24' E 004°57'0 0.0
2017-May-17 13:58N 43°24' E 004°57'0 0.0
2017-May-17 13:25N 43°24' E 004°57'0 0.0
2017-May-17 12:58N 43°24' E 004°57'0 0.1
2017-May-17 12:10N 43°24' E 004°57'0 0.0
2017-May-17 11:58N 43°24' E 004°57'0 0.0
2017-May-17 11:28N 43°24' E 004°57'0 0.0
2017-May-17 10:58N 43°24' E 004°57'0 0.0
2017-May-17 10:19N 43°24' E 004°56'0 0.1
2017-May-17 09:58N 43°24' E 004°57'0 0.1
2017-May-17 09:28N 43°24' E 004°57'0 0.1
2017-May-17 08:55N 43°24' E 004°57'0 0.1
2017-May-17 08:28N 43°24' E 004°57'0 0.1
2017-May-17 07:58N 43°24' E 004°57'0 0.0
2017-May-17 07:28N 43°24' E 004°56'0 0.0
2017-May-17 06:55N 43°24' E 004°57'0 0.0
2017-May-17 06:28N 43°24' E 004°57'0 0.0
2017-May-17 05:58N 43°24' E 004°56'0 0.0
2017-May-17 05:25N 43°24' E 004°57'0 0.0
2017-May-17 04:58N 43°24' E 004°57'0 0.0
2017-May-17 04:25N 43°24' E 004°57'0 0.0
2017-May-17 03:55N 43°24' E 004°57'0 0.0
2017-May-17 03:28N 43°24' E 004°56'0 0.0
2017-May-17 02:58N 43°24' E 004°57'0 0.1
2017-May-17 02:28N 43°24' E 004°56'0 0.1
2017-May-17 01:58N 43°24' E 004°56'0 0.0
2017-May-17 01:19N 43°24' E 004°56'0 0.1
2017-May-17 00:58N 43°24' E 004°56'0 0.0
2017-May-17 00:28N 43°24' E 004°56'0 0.0
2017-May-16 23:55N 43°24' E 004°56'0 0.0
2017-May-16 23:28N 43°24' E 004°56'0 0.0
2017-May-16 22:52N 43°24' E 004°56'0 0.0
2017-May-16 22:28N 43°24' E 004°56'0 0.0
2017-May-16 21:43N 43°24' E 004°56'0 0.0
2017-May-16 21:28N 43°24' E 004°56'0 0.0
2017-May-16 20:58N 43°24' E 004°56'0 0.0
2017-May-16 20:28N 43°24' E 004°56'0 0.0
2017-May-16 19:55N 43°24' E 004°56'0 0.0
2017-May-16 18:43N 43°24' E 004°56'0 0.0
2017-May-16 18:25N 43°24' E 004°56'0 0.1
2017-May-16 17:58N 43°24' E 004°56'0 0.0
2017-May-16 17:25N 43°24' E 004°56'0 0.0
2017-May-16 16:55N 43°24' E 004°57'0 0.0
2017-May-16 16:25N 43°24' E 004°56'0 0.0
2017-May-16 15:55N 43°24' E 004°56'0 0.0
2017-May-16 15:28N 43°24' E 004°57'0 0.0
2017-May-16 14:52N 43°24' E 004°57'0 0.0
2017-May-16 14:28N 43°24' E 004°57'0 0.0
2017-May-16 13:28N 43°24' E 004°57'0 0.0
2017-May-16 12:49N 43°24' E 004°57'0 0.0
2017-May-16 12:28N 43°24' E 004°57'0 0.0
2017-May-16 11:55N 43°24' E 004°57'0 0.0
2017-May-16 11:25N 43°24' E 004°57'0 0.0
2017-May-16 10:55N 43°24' E 004°57'0 0.0
2017-May-16 10:28N 43°24' E 004°57'0 0.1
2017-May-16 09:55N 43°24' E 004°57'0 0.0
2017-May-16 09:28N 43°24' E 004°57'0 0.0
2017-May-16 08:58N 43°24' E 004°57'0 0.1
2017-May-16 08:28N 43°24' E 004°57'0 0.0
2017-May-16 07:55N 43°24' E 004°57'0 0.0
2017-May-16 07:28N 43°24' E 004°57'0 0.1
2017-May-16 06:58N 43°24' E 004°57'0 0.0
2017-May-16 06:28N 43°24' E 004°57'0 0.0
2017-May-16 05:55N 43°24' E 004°57'0 0.0
2017-May-16 05:25N 43°24' E 004°57'0 0.1
2017-May-16 04:55N 43°24' E 004°57'0 0.0
2017-May-16 04:28N 43°24' E 004°57'0 0.0
2017-May-16 03:55N 43°24' E 004°57'0 0.0
2017-May-16 03:25N 43°24' E 004°57'0 0.0
2017-May-16 02:58N 43°24' E 004°57'0 0.0
2017-May-16 02:28N 43°24' E 004°57'0 0.0
2017-May-16 01:55N 43°24' E 004°57'0 0.0
2017-May-16 01:28N 43°24' E 004°57'0 0.0
2017-May-16 00:55N 43°24' E 004°57'0 0.0
2017-May-16 00:25N 43°24' E 004°57'0 0.0
2017-May-15 23:55N 43°24' E 004°57'0 0.0
2017-May-15 23:25N 43°24' E 004°57'  
Track history (hours):
 
Tides and Currents Weather Stations Pressure Air Temp Water Temp Dewpoint Dewpoint Depression Visibility Wind Speed Wind Dir Waves Ship Positions

Cfl Performer

Last reported at 2017-May-25 22:54 UTC. Time now 2017-May-26 18:53 UTC.
Position N 37°49' E 024°24'.

Length 117 m; draft 3.4 m.

Type: Cargo ship. MMSI: 244989000.

Date/timePositionNaut miles runAvg speedWind from/ knotsBaromVisibWave heightAir tempDewpointWater temp
2017-May-25 22:54N 37°49' E 024°24'610.4
2017-May-25 22:19N 37°44' E 024°20'1111.2
2017-May-25 21:22N 37°36' E 024°10'710.9
2017-May-25 20:44N 37°34' E 024°02'311.5
2017-May-25 20:30N 37°34' E 023°59'611.4
2017-May-25 20:00N 37°35' E 023°52'611.3
2017-May-25 19:30N 37°37' E 023°45'510.7
2017-May-25 19:00N 37°41' E 023°41'611.2
2017-May-25 18:31N 37°46' E 023°38'5 9.9
2017-May-25 18:00N 37°50' E 023°34'510.7
2017-May-25 17:30N 37°51' E 023°27'611.2
2017-May-25 17:01N 37°52' E 023°20'611.0
2017-May-25 16:30N 37°53' E 023°13'611.2
2017-May-25 16:00N 37°54' E 023°06'16 6.8
2017-May-25 13:42N 38°05' E 022°53'211.3
2017-May-25 13:30N 38°07' E 022°55'327 7.5
2017-May-23 18:07N 37°51' E 016°01'210.8
2017-May-23 17:54N 37°51' E 015°58'410.8
2017-May-23 17:30N 37°51' E 015°53'510.6
2017-May-23 17:00N 37°50' E 015°46'510.0
2017-May-23 16:30N 37°51' E 015°40'5 9.9
2017-May-23 16:00N 37°55' E 015°36'5 9.3
2017-May-23 15:30N 37°59' E 015°33'611.0
2017-May-23 15:00N 38°04' E 015°34'510.8
2017-May-23 14:30N 38°10' E 015°35'8 7.9
2017-May-23 13:30N 38°16' E 015°40'5 9.6
2017-May-23 13:00N 38°19' E 015°35'510.5
2017-May-23 12:30N 38°23' E 015°30'510.9
2017-May-23 12:00N 38°25' E 015°24'510.4
2017-May-23 11:30N 38°28' E 015°18'510.3
2017-May-23 11:00N 38°31' E 015°13'510.3
2017-May-23 10:30N 38°34' E 015°07'510.2
2017-May-23 10:00N 38°36' E 015°02'510.3
2017-May-23 09:29N 38°39' E 014°56'610.1
2017-May-23 08:55N 38°42' E 014°50'510.2
2017-May-23 08:26N 38°45' E 014°44'4810.3
2017-May-23 03:46N 39°11' E 013°53'410.5
2017-May-23 03:25N 39°13' E 013°49'410.5
2017-May-23 03:00N 39°15' E 013°44'5110.3
2017-May-22 22:00N 39°43' E 012°48'1210.2
2017-May-22 20:48N 39°49' E 012°34'410.2
2017-May-22 20:26N 39°51' E 012°30'510.2
2017-May-22 19:59N 39°54' E 012°25'710.2
2017-May-22 19:19N 39°58' E 012°17'310.2
2017-May-22 19:00N 39°59' E 012°14'510.2
2017-May-22 18:29N 40°02' E 012°08'510.1
2017-May-22 18:00N 40°05' E 012°03'510.2
2017-May-22 17:30N 40°08' E 011°57'510.1
2017-May-22 17:00N 40°10' E 011°52'8 9.8
2017-May-22 16:10N 40°15' E 011°43'2 9.6
2017-May-22 16:00N 40°16' E 011°41'6 9.7
2017-May-22 15:26N 40°18' E 011°35'6 9.7
2017-May-22 14:47N 40°22' E 011°28'8 9.6
2017-May-22 13:58N 40°26' E 011°19'5 9.8
2017-May-22 13:30N 40°28' E 011°14'5 9.9
2017-May-22 12:57N 40°31' E 011°08'5 9.9
2017-May-22 12:29N 40°34' E 011°03'610.0
2017-May-22 11:56N 40°37' E 010°57'610.3
2017-May-22 11:23N 40°40' E 010°51'510.3
2017-May-22 10:57N 40°42' E 010°45'410.3
2017-May-22 10:30N 40°45' E 010°40'610.3
2017-May-22 09:56N 40°48' E 010°34'610.2
2017-May-22 09:22N 40°51' E 010°28'410.2
2017-May-22 08:59N 40°53' E 010°23'510.2
2017-May-22 08:30N 40°56' E 010°18'510.6
2017-May-22 08:00N 40°59' E 010°12'510.6
2017-May-22 07:30N 41°01' E 010°06'710.8
2017-May-22 06:52N 41°05' E 009°58'410.8
2017-May-22 06:27N 41°08' E 009°53'510.8
2017-May-22 05:59N 41°10' E 009°47'510.6
2017-May-22 05:29N 41°13' E 009°41'710.7
2017-May-22 04:50N 41°17' E 009°34'411.0
2017-May-22 04:27N 41°19' E 009°29'510.6
2017-May-22 03:59N 41°22' E 009°24'510.6
2017-May-22 03:30N 41°19' E 009°18'5 9.9
2017-May-22 02:58N 41°17' E 009°12'510.2
2017-May-22 02:28N 41°18' E 009°05'510.3
2017-May-22 02:00N 41°20' E 008°59'510.4
2017-May-22 01:30N 41°22' E 008°53'510.3
2017-May-22 01:00N 41°26' E 008°48'610.3
2017-May-22 00:26N 41°29' E 008°41'510.3
2017-May-21 23:59N 41°31' E 008°36'510.2
2017-May-21 23:29N 41°34' E 008°30'610.2
2017-May-21 22:52N 41°37' E 008°23'410.2
2017-May-21 22:30N 41°39' E 008°19'510.1
2017-May-21 21:59N 41°42' E 008°13'510.0
2017-May-21 21:28N 41°45' E 008°07'5 9.9
2017-May-21 21:00N 41°47' E 008°02'510.0
2017-May-21 20:30N 41°50' E 007°56'5 9.9
2017-May-21 19:58N 41°53' E 007°50'510.2
2017-May-21 19:30N 41°55' E 007°45'510.2
2017-May-21 18:59N 41°58' E 007°39'510.2
2017-May-21 18:30N 42°01' E 007°33'510.3
2017-May-21 17:59N 42°03' E 007°27'510.0
2017-May-21 17:29N 42°06' E 007°21'510.0
2017-May-21 17:00N 42°09' E 007°16'510.2
2017-May-21 16:30N 42°11' E 007°10'610.3
2017-May-21 15:58N 42°14' E 007°04'510.4
2017-May-21 15:30N 42°17' E 006°58'510.4
2017-May-21 14:59N 42°20' E 006°52'510.3
2017-May-21 14:29N 42°23' E 006°46'1110.3
2017-May-21 13:27N 42°28' E 006°34'510.2
2017-May-21 13:00N 42°31' E 006°29'46 9.9
2017-May-21 08:19N 42°56' E 005°36'3 9.8
2017-May-21 08:00N 42°57' E 005°32'5 9.9
2017-May-21 07:30N 42°60' E 005°26'710.1
2017-May-21 06:49N 43°04' E 005°18'410.2
2017-May-21 06:27N 43°05' E 005°14'5 9.9
2017-May-21 05:58N 43°09' E 005°10'610.3
2017-May-21 05:26N 43°14' E 005°05'410.4
2017-May-21 05:00N 43°17' E 005°02'510.7
2017-May-21 04:30N 43°22' E 004°58'5 9.4
2017-May-21 04:00N 43°25' E 004°53'1 1.9
2017-May-21 03:29N 43°26' E 004°54'0 0.0
2017-May-21 02:59N 43°26' E 004°54'0 0.0
2017-May-21 02:26N 43°26' E 004°54'0 0.0
2017-May-21 01:53N 43°26' E 004°54'0 0.0
2017-May-21 01:26N 43°26' E 004°54'0 0.0
2017-May-21 00:53N 43°26' E 004°54'0 0.0
2017-May-21 00:29N 43°26' E 004°54'0 0.0
2017-May-20 23:59N 43°26' E 004°54'0 0.0
2017-May-20 23:29N 43°26' E 004°54'0 0.0
2017-May-20 22:59N 43°26' E 004°54'0 0.0
2017-May-20 22:29N 43°26' E 004°54'0 0.0
2017-May-20 21:59N 43°26' E 004°54'0 0.0
2017-May-20 21:20N 43°26' E 004°54'0 0.0
2017-May-20 20:38N 43°26' E 004°54'0 0.0
2017-May-20 20:29N 43°26' E 004°54'0 0.0
2017-May-20 19:59N 43°26' E 004°54'0 0.0
2017-May-20 19:29N 43°26' E 004°54'0 0.0
2017-May-20 18:56N 43°26' E 004°54'0 0.0
2017-May-20 18:29N 43°26' E 004°54'0 0.0
2017-May-20 17:59N 43°26' E 004°54'0 0.0
2017-May-20 17:29N 43°26' E 004°54'0 0.0
2017-May-20 16:56N 43°26' E 004°54'0 0.0
2017-May-20 16:26N 43°26' E 004°54'0 0.0
2017-May-20 15:59N 43°26' E 004°54'0 0.0
2017-May-20 15:29N 43°26' E 004°54'0 0.0
2017-May-20 14:53N 43°26' E 004°54'0 0.0
2017-May-20 14:29N 43°26' E 004°54'0 0.1
2017-May-20 13:26N 43°26' E 004°53'0 0.0
2017-May-20 12:23N 43°26' E 004°53'0 0.0
2017-May-20 11:59N 43°26' E 004°53'0 0.0
2017-May-20 11:26N 43°26' E 004°53'0 0.0
2017-May-20 10:38N 43°26' E 004°53'0 0.0
2017-May-20 10:29N 43°26' E 004°53'0 0.0
2017-May-20 09:50N 43°26' E 004°53'0 0.0
2017-May-20 09:29N 43°26' E 004°53'0 0.0
2017-May-20 08:53N 43°26' E 004°53'0 0.0
2017-May-20 08:26N 43°26' E 004°53'0 0.0
2017-May-20 06:56N 43°26' E 004°53'0 0.0
2017-May-20 06:20N 43°26' E 004°53'0 0.0
2017-May-20 05:08N 43°26' E 004°53'0 0.0
2017-May-20 04:56N 43°26' E 004°53'0 0.0
2017-May-20 04:23N 43°26' E 004°53'0 0.0
2017-May-20 03:59N 43°26' E 004°53'0 0.0
2017-May-20 03:20N 43°26' E 004°53'0 0.0
2017-May-20 02:32N 43°26' E 004°53'0 0.0
2017-May-20 02:23N 43°26' E 004°53'0 0.0
2017-May-20 01:59N 43°26' E 004°53'0 0.0
2017-May-20 01:29N 43°26' E 004°53'0 0.0
2017-May-20 00:59N 43°26' E 004°53'0 0.0
2017-May-20 00:14N 43°26' E 004°53'0 0.0
2017-May-19 23:56N 43°26' E 004°53'0 0.0
2017-May-19 23:26N 43°26' E 004°53'0 0.0
2017-May-19 22:59N 43°26' E 004°53'0 0.0
2017-May-19 22:29N 43°26' E 004°53'0 0.0
2017-May-19 21:59N 43°26' E 004°53'0 0.0
2017-May-19 21:26N 43°26' E 004°53'0 0.0
2017-May-19 20:59N 43°26' E 004°53'0 0.0
2017-May-19 20:20N 43°26' E 004°53'0 0.0
2017-May-19 19:47N 43°26' E 004°53'0 0.0
2017-May-19 19:20N 43°26' E 004°53'0 0.0
2017-May-19 18:50N 43°26' E 004°53'0 0.0
2017-May-19 18:26N 43°26' E 004°53'0 0.0
2017-May-19 17:56N 43°26' E 004°53'0 0.0
2017-May-19 17:29N 43°26' E 004°53'0 0.0
2017-May-19 16:59N 43°26' E 004°53'0 0.1
2017-May-19 16:29N 43°26' E 004°53'0 0.0
2017-May-19 15:59N 43°26' E 004°53'0 0.0
2017-May-19 15:26N 43°26' E 004°53'0 0.0
2017-May-19 14:47N 43°26' E 004°53'0 0.0
2017-May-19 13:56N 43°26' E 004°53'0 0.0
2017-May-19 13:26N 43°26' E 004°53'0 0.0
2017-May-19 12:17N 43°26' E 004°53'0 0.0
2017-May-19 11:56N 43°26' E 004°53'0 0.0
2017-May-19 10:32N 43°26' E 004°53'0 0.0
2017-May-19 10:23N 43°26' E 004°53'0 0.0
2017-May-19 09:44N 43°26' E 004°53'0 0.0
2017-May-19 09:29N 43°26' E 004°53'0 0.0
2017-May-19 08:59N 43°26' E 004°53'0 0.0
2017-May-19 08:29N 43°26' E 004°53'0 0.0
2017-May-19 07:50N 43°26' E 004°53'0 0.0
2017-May-19 07:20N 43°26' E 004°53'0 0.0
2017-May-19 06:56N 43°26' E 004°53'0 0.0
2017-May-19 06:29N 43°26' E 004°53'0 0.0
2017-May-19 05:38N 43°26' E 004°53'0 0.0
2017-May-19 05:26N 43°26' E 004°53'0 0.0
2017-May-19 04:56N 43°26' E 004°53'0 0.0
2017-May-19 04:20N 43°26' E 004°53'0 0.0
2017-May-19 03:47N 43°26' E 004°53'0 0.0
2017-May-19 03:26N 43°26' E 004°53'0 0.0
2017-May-19 02:56N 43°26' E 004°53'0 0.0
2017-May-19 02:20N 43°26' E 004°53'0 0.0
2017-May-19 01:56N 43°26' E 004°53'0 0.0
2017-May-19 01:20N 43°26' E 004°53'0 0.0
2017-May-19 00:56N 43°26' E 004°53'0 0.0
2017-May-19 00:29N 43°26' E 004°53'0 0.0
2017-May-18 23:59N 43°26' E 004°53'0 0.0
2017-May-18 23:29N 43°26' E 004°53'0 0.0
2017-May-18 22:50N 43°26' E 004°53'0 0.0
2017-May-18 22:26N 43°26' E 004°53'0 0.0
2017-May-18 21:50N 43°26' E 004°53'0 0.0
2017-May-18 21:26N 43°26' E 004°53'0 0.0
2017-May-18 20:56N 43°26' E 004°53'0 0.0
2017-May-18 20:29N 43°26' E 004°53'0 0.0
2017-May-18 19:50N 43°26' E 004°53'0 0.0
2017-May-18 19:23N 43°26' E 004°53'0 0.7
2017-May-18 18:56N 43°25' E 004°53'1 3.3
2017-May-18 18:28N 43°24' E 004°54'2 4.0
2017-May-18 17:58N 43°24' E 004°56'0 0.1
2017-May-18 17:25N 43°24' E 004°56'0 0.0
2017-May-18 16:49N 43°24' E 004°56'0 0.1
2017-May-18 16:28N 43°24' E 004°56'0 0.0
2017-May-18 15:58N 43°24' E 004°56'0 0.0
2017-May-18 15:28N 43°24' E 004°56'0 0.0
2017-May-18 14:58N 43°24' E 004°56'0 0.0
2017-May-18 14:28N 43°24' E 004°56'0 0.0
2017-May-18 13:28N 43°24' E 004°56'0 0.0
2017-May-18 12:58N 43°24' E 004°56'0 0.0
2017-May-18 12:28N 43°24' E 004°56'0 0.0
2017-May-18 11:58N 43°24' E 004°56'0 0.0
2017-May-18 11:28N 43°24' E 004°56'0 0.0
2017-May-18 10:58N 43°24' E 004°57'0 0.0
2017-May-18 10:28N 43°24' E 004°57'0 0.1
2017-May-18 09:58N 43°24' E 004°57'0 0.0
2017-May-18 09:28N 43°24' E 004°57'0 0.0
2017-May-18 08:58N 43°24' E 004°57'0 0.0
2017-May-18 08:28N 43°24' E 004°57'0 0.0
2017-May-18 07:58N 43°24' E 004°57'0 0.1
2017-May-18 07:28N 43°24' E 004°56'0 0.1
2017-May-18 06:58N 43°24' E 004°56'0 0.1
2017-May-18 06:28N 43°24' E 004°56'0 0.0
2017-May-18 05:58N 43°24' E 004°56'0 0.0
2017-May-18 05:28N 43°24' E 004°56'0 0.0
2017-May-18 04:58N 43°24' E 004°56'0 0.0
2017-May-18 04:28N 43°24' E 004°56'0 0.0
2017-May-18 03:55N 43°24' E 004°56'0 0.1
2017-May-18 03:28N 43°24' E 004°57'0 0.1
2017-May-18 02:58N 43°24' E 004°57'0 0.0
2017-May-18 02:28N 43°24' E 004°57'0 0.0
2017-May-18 01:58N 43°24' E 004°57'0 0.0
2017-May-18 01:28N 43°24' E 004°57'0 0.0
2017-May-18 00:58N 43°24' E 004°57'0 0.0
2017-May-18 00:28N 43°24' E 004°57'0 0.1
2017-May-17 23:58N 43°24' E 004°57'0 0.1
2017-May-17 23:28N 43°24' E 004°56'0 0.0
2017-May-17 22:58N 43°24' E 004°56'0 0.0
2017-May-17 22:28N 43°24' E 004°56'0 0.0
2017-May-17 21:58N 43°24' E 004°56'0 0.0
2017-May-17 21:28N 43°24' E 004°56'0 0.0
2017-May-17 20:58N 43°24' E 004°56'0 0.0
2017-May-17 20:28N 43°24' E 004°56'0 0.0
2017-May-17 19:58N 43°24' E 004°56'0 0.0
2017-May-17 19:28N 43°24' E 004°56'0 0.0
2017-May-17 18:58N 43°24' E 004°56'0 0.0
2017-May-17 18:25N 43°24' E 004°56'0 0.0
2017-May-17 17:58N 43°24' E 004°56'0 0.1
2017-May-17 17:28N 43°24' E 004°56'0 0.0
2017-May-17 16:43N 43°24' E 004°56'0 0.0
2017-May-17 16:25N 43°24' E 004°56'0 0.1
2017-May-17 15:58N 43°24' E 004°56'0 0.1
2017-May-17 15:28N 43°24' E 004°57'0 0.0
2017-May-17 14:58N 43°24' E 004°57'0 0.0
2017-May-17 13:58N 43°24' E 004°57'0 0.0
2017-May-17 13:25N 43°24' E 004°57'0 0.0
2017-May-17 12:58N 43°24' E 004°57'0 0.1
2017-May-17 12:10N 43°24' E 004°57'0 0.0
2017-May-17 11:58N 43°24' E 004°57'0 0.0
2017-May-17 11:28N 43°24' E 004°57'0 0.0
2017-May-17 10:58N 43°24' E 004°57'0 0.0
2017-May-17 10:19N 43°24' E 004°56'0 0.1
2017-May-17 09:58N 43°24' E 004°57'0 0.1
2017-May-17 09:28N 43°24' E 004°57'0 0.1
2017-May-17 08:55N 43°24' E 004°57'0 0.1
2017-May-17 08:28N 43°24' E 004°57'0 0.1
2017-May-17 07:58N 43°24' E 004°57'0 0.0
2017-May-17 07:28N 43°24' E 004°56'0 0.0
2017-May-17 06:55N 43°24' E 004°57'0 0.0
2017-May-17 06:28N 43°24' E 004°57'0 0.0
2017-May-17 05:58N 43°24' E 004°56'0 0.0
2017-May-17 05:25N 43°24' E 004°57'0 0.0
2017-May-17 04:58N 43°24' E 004°57'0 0.0
2017-May-17 04:25N 43°24' E 004°57'0 0.0
2017-May-17 03:55N 43°24' E 004°57'0 0.0
2017-May-17 03:28N 43°24' E 004°56'0 0.0
2017-May-17 02:58N 43°24' E 004°57'0 0.1
2017-May-17 02:28N 43°24' E 004°56'0 0.1
2017-May-17 01:58N 43°24' E 004°56'0 0.0
2017-May-17 01:19N 43°24' E 004°56'0 0.1
2017-May-17 00:58N 43°24' E 004°56'0 0.0
2017-May-17 00:28N 43°24' E 004°56'0 0.0
2017-May-16 23:55N 43°24' E 004°56'0 0.0
2017-May-16 23:28N 43°24' E 004°56'0 0.0
2017-May-16 22:52N 43°24' E 004°56'0 0.0
2017-May-16 22:28N 43°24' E 004°56'0 0.0
2017-May-16 21:43N 43°24' E 004°56'0 0.0
2017-May-16 21:28N 43°24' E 004°56'0 0.0
2017-May-16 20:58N 43°24' E 004°56'0 0.0
2017-May-16 20:28N 43°24' E 004°56'0 0.0
2017-May-16 19:55N 43°24' E 004°56'0 0.0
2017-May-16 18:43N 43°24' E 004°56'0 0.0
2017-May-16 18:25N 43°24' E 004°56'0 0.1
2017-May-16 17:58N 43°24' E 004°56'0 0.0
2017-May-16 17:25N 43°24' E 004°56'0 0.0
2017-May-16 16:55N 43°24' E 004°57'0 0.0
2017-May-16 16:25N 43°24' E 004°56'0 0.0
2017-May-16 15:55N 43°24' E 004°56'0 0.0
2017-May-16 15:28N 43°24' E 004°57'0 0.0
2017-May-16 14:52N 43°24' E 004°57'0 0.0
2017-May-16 14:28N 43°24' E 004°57'0 0.0
2017-May-16 13:28N 43°24' E 004°57'0 0.0
2017-May-16 12:49N 43°24' E 004°57'0 0.0
2017-May-16 12:28N 43°24' E 004°57'0 0.0
2017-May-16 11:55N 43°24' E 004°57'0 0.0
2017-May-16 11:25N 43°24' E 004°57'0 0.0
2017-May-16 10:55N 43°24' E 004°57'0 0.0
2017-May-16 10:28N 43°24' E 004°57'0 0.1
2017-May-16 09:55N 43°24' E 004°57'0 0.0
2017-May-16 09:28N 43°24' E 004°57'0 0.0
2017-May-16 08:58N 43°24' E 004°57'0 0.1
2017-May-16 08:28N 43°24' E 004°57'0 0.0
2017-May-16 07:55N 43°24' E 004°57'0 0.0
2017-May-16 07:28N 43°24' E 004°57'0 0.1
2017-May-16 06:58N 43°24' E 004°57'0 0.0
2017-May-16 06:28N 43°24' E 004°57'0 0.0
2017-May-16 05:55N 43°24' E 004°57'0 0.0
2017-May-16 05:25N 43°24' E 004°57'0 0.1
2017-May-16 04:55N 43°24' E 004°57'0 0.0
2017-May-16 04:28N 43°24' E 004°57'0 0.0
2017-May-16 03:55N 43°24' E 004°57'0 0.0
2017-May-16 03:25N 43°24' E 004°57'0 0.0
2017-May-16 02:58N 43°24' E 004°57'0 0.0
2017-May-16 02:28N 43°24' E 004°57'0 0.0
2017-May-16 01:55N 43°24' E 004°57'0 0.0
2017-May-16 01:28N 43°24' E 004°57'0 0.0
2017-May-16 00:55N 43°24' E 004°57'0 0.0
2017-May-16 00:25N 43°24' E 004°57'0 0.0
2017-May-15 23:55N 43°24' E 004°57'0 0.0
2017-May-15 23:25N 43°24' E 004°57'  

Dump ship's entire track history